sensor_id;sensor_type;location;lat;lon;timestamp;P1;durP1;ratioP1;P2;durP2;ratioP2
31336;SDS011;22846;42.654;23.314;2022-08-19T00:01:25;8.25;;;5.40;;
31336;SDS011;22846;42.654;23.314;2022-08-19T00:03:52;6.78;;;5.50;;
31336;SDS011;22846;42.654;23.314;2022-08-19T00:06:18;13.02;;;5.97;;
31336;SDS011;22846;42.654;23.314;2022-08-19T00:08:43;14.68;;;5.43;;
31336;SDS011;22846;42.654;23.314;2022-08-19T00:11:09;8.05;;;5.15;;
31336;SDS011;22846;42.654;23.314;2022-08-19T00:13:35;9.32;;;5.65;;
31336;SDS011;22846;42.654;23.314;2022-08-19T00:16:01;9.05;;;5.40;;
31336;SDS011;22846;42.654;23.314;2022-08-19T00:18:27;5.60;;;5.03;;
31336;SDS011;22846;42.654;23.314;2022-08-19T00:20:53;10.50;;;5.65;;
31336;SDS011;22846;42.654;23.314;2022-08-19T00:23:18;7.45;;;5.38;;
31336;SDS011;22846;42.654;23.314;2022-08-19T00:25:44;10.00;;;5.40;;
31336;SDS011;22846;42.654;23.314;2022-08-19T00:28:10;7.13;;;5.32;;
31336;SDS011;22846;42.654;23.314;2022-08-19T00:30:35;7.28;;;5.20;;
31336;SDS011;22846;42.654;23.314;2022-08-19T00:33:01;7.03;;;5.55;;
31336;SDS011;22846;42.654;23.314;2022-08-19T00:35:27;6.30;;;5.65;;
31336;SDS011;22846;42.654;23.314;2022-08-19T00:37:53;7.60;;;5.43;;
31336;SDS011;22846;42.654;23.314;2022-08-19T00:40:21;9.15;;;5.40;;
31336;SDS011;22846;42.654;23.314;2022-08-19T00:42:47;5.65;;;4.88;;
31336;SDS011;22846;42.654;23.314;2022-08-19T00:45:20;7.63;;;5.18;;
31336;SDS011;22846;42.654;23.314;2022-08-19T00:47:47;9.95;;;5.95;;
31336;SDS011;22846;42.654;23.314;2022-08-19T00:50:14;10.05;;;5.63;;
31336;SDS011;22846;42.654;23.314;2022-08-19T00:52:43;10.57;;;5.90;;
31336;SDS011;22846;42.654;23.314;2022-08-19T00:55:19;7.80;;;5.18;;
31336;SDS011;22846;42.654;23.314;2022-08-19T00:57:56;7.68;;;5.25;;
31336;SDS011;22846;42.654;23.314;2022-08-19T01:00:28;5.97;;;5.38;;
31336;SDS011;22846;42.654;23.314;2022-08-19T01:02:54;5.85;;;5.25;;
31336;SDS011;22846;42.654;23.314;2022-08-19T01:05:22;6.80;;;4.82;;
31336;SDS011;22846;42.654;23.314;2022-08-19T01:07:52;7.50;;;5.43;;
31336;SDS011;22846;42.654;23.314;2022-08-19T01:10:20;8.90;;;5.68;;
31336;SDS011;22846;42.654;23.314;2022-08-19T01:12:48;7.47;;;5.82;;
31336;SDS011;22846;42.654;23.314;2022-08-19T01:15:17;10.00;;;5.55;;
31336;SDS011;22846;42.654;23.314;2022-08-19T01:17:46;7.78;;;5.55;;
31336;SDS011;22846;42.654;23.314;2022-08-19T01:20:13;12.60;;;5.82;;
31336;SDS011;22846;42.654;23.314;2022-08-19T01:22:44;9.75;;;5.45;;
31336;SDS011;22846;42.654;23.314;2022-08-19T01:25:14;9.50;;;5.80;;
31336;SDS011;22846;42.654;23.314;2022-08-19T01:27:43;8.63;;;5.40;;
31336;SDS011;22846;42.654;23.314;2022-08-19T01:30:13;8.20;;;5.38;;
31336;SDS011;22846;42.654;23.314;2022-08-19T01:32:44;7.88;;;5.47;;
31336;SDS011;22846;42.654;23.314;2022-08-19T01:35:10;7.68;;;5.72;;
31336;SDS011;22846;42.654;23.314;2022-08-19T01:40:13;7.32;;;5.55;;
31336;SDS011;22846;42.654;23.314;2022-08-19T01:42:39;9.15;;;5.65;;
31336;SDS011;22846;42.654;23.314;2022-08-19T01:45:06;8.70;;;5.65;;
31336;SDS011;22846;42.654;23.314;2022-08-19T01:47:33;8.27;;;5.57;;
31336;SDS011;22846;42.654;23.314;2022-08-19T01:50:00;9.77;;;5.47;;
31336;SDS011;22846;42.654;23.314;2022-08-19T01:52:26;7.53;;;5.38;;
31336;SDS011;22846;42.654;23.314;2022-08-19T01:54:52;9.63;;;6.10;;
31336;SDS011;22846;42.654;23.314;2022-08-19T01:57:17;6.30;;;5.65;;
31336;SDS011;22846;42.654;23.314;2022-08-19T01:59:43;6.82;;;5.75;;
31336;SDS011;22846;42.654;23.314;2022-08-19T02:02:10;8.07;;;5.93;;
31336;SDS011;22846;42.654;23.314;2022-08-19T02:04:36;7.90;;;6.35;;
31336;SDS011;22846;42.654;23.314;2022-08-19T02:07:05;9.43;;;6.13;;
31336;SDS011;22846;42.654;23.314;2022-08-19T02:09:32;9.90;;;6.10;;
31336;SDS011;22846;42.654;23.314;2022-08-19T02:11:58;7.85;;;5.70;;
31336;SDS011;22846;42.654;23.314;2022-08-19T02:14:24;6.78;;;5.53;;
31336;SDS011;22846;42.654;23.314;2022-08-19T02:16:49;9.48;;;5.60;;
31336;SDS011;22846;42.654;23.314;2022-08-19T02:19:15;8.40;;;5.72;;
31336;SDS011;22846;42.654;23.314;2022-08-19T02:21:40;7.18;;;5.38;;
31336;SDS011;22846;42.654;23.314;2022-08-19T02:24:06;9.80;;;5.22;;
31336;SDS011;22846;42.654;23.314;2022-08-19T02:26:32;6.40;;;5.43;;
31336;SDS011;22846;42.654;23.314;2022-08-19T02:28:58;6.28;;;5.30;;
31336;SDS011;22846;42.654;23.314;2022-08-19T02:31:24;6.70;;;4.93;;
31336;SDS011;22846;42.654;23.314;2022-08-19T02:33:52;9.18;;;5.38;;
31336;SDS011;22846;42.654;23.314;2022-08-19T02:36:18;6.85;;;5.40;;
31336;SDS011;22846;42.654;23.314;2022-08-19T02:38:44;7.22;;;5.70;;
31336;SDS011;22846;42.654;23.314;2022-08-19T02:41:13;7.60;;;5.63;;
31336;SDS011;22846;42.654;23.314;2022-08-19T02:43:40;8.25;;;5.75;;
31336;SDS011;22846;42.654;23.314;2022-08-19T02:46:16;8.73;;;5.70;;
31336;SDS011;22846;42.654;23.314;2022-08-19T02:48:47;8.93;;;5.22;;
31336;SDS011;22846;42.654;23.314;2022-08-19T02:51:20;6.63;;;5.57;;
31336;SDS011;22846;42.654;23.314;2022-08-19T02:53:51;7.38;;;5.95;;
31336;SDS011;22846;42.654;23.314;2022-08-19T02:56:17;9.80;;;5.90;;
31336;SDS011;22846;42.654;23.314;2022-08-19T02:58:43;10.52;;;6.07;;
31336;SDS011;22846;42.654;23.314;2022-08-19T03:01:09;6.57;;;5.85;;
31336;SDS011;22846;42.654;23.314;2022-08-19T03:03:36;6.45;;;5.80;;
31336;SDS011;22846;42.654;23.314;2022-08-19T03:06:03;6.57;;;5.70;;
31336;SDS011;22846;42.654;23.314;2022-08-19T03:08:33;8.75;;;5.97;;
31336;SDS011;22846;42.654;23.314;2022-08-19T03:10:58;9.25;;;5.57;;
31336;SDS011;22846;42.654;23.314;2022-08-19T03:13:24;6.65;;;5.50;;
31336;SDS011;22846;42.654;23.314;2022-08-19T03:15:49;7.97;;;5.88;;
31336;SDS011;22846;42.654;23.314;2022-08-19T03:18:15;9.93;;;5.85;;
31336;SDS011;22846;42.654;23.314;2022-08-19T03:20:42;9.77;;;5.97;;
31336;SDS011;22846;42.654;23.314;2022-08-19T03:23:21;10.20;;;6.25;;
31336;SDS011;22846;42.654;23.314;2022-08-19T03:25:47;9.80;;;6.13;;
31336;SDS011;22846;42.654;23.314;2022-08-19T03:28:15;8.25;;;6.20;;
31336;SDS011;22846;42.654;23.314;2022-08-19T03:30:41;13.20;;;6.03;;
31336;SDS011;22846;42.654;23.314;2022-08-19T03:33:21;11.10;;;6.05;;
31336;SDS011;22846;42.654;23.314;2022-08-19T03:35:47;13.15;;;6.43;;
31336;SDS011;22846;42.654;23.314;2022-08-19T03:38:13;11.45;;;6.57;;
31336;SDS011;22846;42.654;23.314;2022-08-19T03:40:38;12.63;;;6.40;;
31336;SDS011;22846;42.654;23.314;2022-08-19T03:43:03;9.95;;;6.40;;
31336;SDS011;22846;42.654;23.314;2022-08-19T03:45:30;10.40;;;6.45;;
31336;SDS011;22846;42.654;23.314;2022-08-19T03:47:55;10.07;;;5.85;;
31336;SDS011;22846;42.654;23.314;2022-08-19T03:50:21;12.20;;;6.18;;
31336;SDS011;22846;42.654;23.314;2022-08-19T03:52:49;8.75;;;6.20;;
31336;SDS011;22846;42.654;23.314;2022-08-19T03:55:15;8.68;;;6.50;;
31336;SDS011;22846;42.654;23.314;2022-08-19T03:57:41;7.13;;;6.30;;
31336;SDS011;22846;42.654;23.314;2022-08-19T04:00:07;11.52;;;6.32;;
31336;SDS011;22846;42.654;23.314;2022-08-19T04:02:34;12.13;;;6.50;;
31336;SDS011;22846;42.654;23.314;2022-08-19T04:04:59;15.73;;;7.65;;
31336;SDS011;22846;42.654;23.314;2022-08-19T04:07:24;13.65;;;6.78;;
31336;SDS011;22846;42.654;23.314;2022-08-19T04:09:50;9.80;;;6.82;;
31336;SDS011;22846;42.654;23.314;2022-08-19T04:12:17;12.93;;;6.30;;
31336;SDS011;22846;42.654;23.314;2022-08-19T04:14:42;15.82;;;6.68;;
31336;SDS011;22846;42.654;23.314;2022-08-19T04:17:07;9.48;;;6.22;;
31336;SDS011;22846;42.654;23.314;2022-08-19T04:19:33;11.10;;;6.15;;
31336;SDS011;22846;42.654;23.314;2022-08-19T04:22:00;10.85;;;6.38;;
31336;SDS011;22846;42.654;23.314;2022-08-19T04:24:26;9.50;;;6.35;;
31336;SDS011;22846;42.654;23.314;2022-08-19T04:26:52;9.50;;;6.10;;
31336;SDS011;22846;42.654;23.314;2022-08-19T04:29:19;10.50;;;6.20;;
31336;SDS011;22846;42.654;23.314;2022-08-19T04:31:49;13.55;;;6.32;;
31336;SDS011;22846;42.654;23.314;2022-08-19T04:34:16;13.65;;;6.53;;
31336;SDS011;22846;42.654;23.314;2022-08-19T04:36:43;10.75;;;6.65;;
31336;SDS011;22846;42.654;23.314;2022-08-19T04:39:11;10.35;;;6.43;;
31336;SDS011;22846;42.654;23.314;2022-08-19T04:41:39;8.73;;;6.32;;
31336;SDS011;22846;42.654;23.314;2022-08-19T04:44:23;11.25;;;6.97;;
31336;SDS011;22846;42.654;23.314;2022-08-19T04:46:49;11.57;;;6.60;;
31336;SDS011;22846;42.654;23.314;2022-08-19T04:49:16;10.45;;;7.10;;
31336;SDS011;22846;42.654;23.314;2022-08-19T04:51:44;13.45;;;7.32;;
31336;SDS011;22846;42.654;23.314;2022-08-19T04:54:13;20.75;;;7.65;;
31336;SDS011;22846;42.654;23.314;2022-08-19T04:56:39;19.88;;;8.18;;
31336;SDS011;22846;42.654;23.314;2022-08-19T04:59:05;13.60;;;7.53;;
31336;SDS011;22846;42.654;23.314;2022-08-19T05:01:32;11.27;;;7.47;;
31336;SDS011;22846;42.654;23.314;2022-08-19T05:04:01;10.52;;;7.20;;
31336;SDS011;22846;42.654;23.314;2022-08-19T05:06:30;12.27;;;5.95;;
31336;SDS011;22846;42.654;23.314;2022-08-19T05:09:02;15.00;;;7.50;;
31336;SDS011;22846;42.654;23.314;2022-08-19T05:11:33;11.80;;;7.47;;
31336;SDS011;22846;42.654;23.314;2022-08-19T05:14:05;21.45;;;8.50;;
31336;SDS011;22846;42.654;23.314;2022-08-19T05:16:32;18.92;;;8.55;;
31336;SDS011;22846;42.654;23.314;2022-08-19T05:18:57;21.52;;;9.05;;
31336;SDS011;22846;42.654;23.314;2022-08-19T05:21:42;22.90;;;8.68;;
31336;SDS011;22846;42.654;23.314;2022-08-19T05:24:27;19.15;;;8.45;;
31336;SDS011;22846;42.654;23.314;2022-08-19T05:26:53;21.08;;;8.25;;
31336;SDS011;22846;42.654;23.314;2022-08-19T05:29:22;22.35;;;8.18;;
31336;SDS011;22846;42.654;23.314;2022-08-19T05:31:49;17.73;;;7.70;;
31336;SDS011;22846;42.654;23.314;2022-08-19T05:34:16;19.75;;;8.00;;
31336;SDS011;22846;42.654;23.314;2022-08-19T05:36:46;21.83;;;8.10;;
31336;SDS011;22846;42.654;23.314;2022-08-19T05:39:17;15.95;;;7.72;;
31336;SDS011;22846;42.654;23.314;2022-08-19T05:41:46;15.93;;;8.27;;
31336;SDS011;22846;42.654;23.314;2022-08-19T05:44:13;24.02;;;7.97;;
31336;SDS011;22846;42.654;23.314;2022-08-19T05:46:40;20.73;;;8.15;;
31336;SDS011;22846;42.654;23.314;2022-08-19T05:49:08;17.70;;;7.20;;
31336;SDS011;22846;42.654;23.314;2022-08-19T05:51:34;12.32;;;6.97;;
31336;SDS011;22846;42.654;23.314;2022-08-19T05:54:02;13.90;;;7.82;;
31336;SDS011;22846;42.654;23.314;2022-08-19T05:56:29;14.13;;;7.30;;
31336;SDS011;22846;42.654;23.314;2022-08-19T05:58:56;12.82;;;6.93;;
31336;SDS011;22846;42.654;23.314;2022-08-19T06:01:23;12.93;;;6.97;;
31336;SDS011;22846;42.654;23.314;2022-08-19T06:03:50;15.00;;;6.70;;
31336;SDS011;22846;42.654;23.314;2022-08-19T06:06:16;12.13;;;6.97;;
31336;SDS011;22846;42.654;23.314;2022-08-19T06:08:42;19.08;;;6.97;;
31336;SDS011;22846;42.654;23.314;2022-08-19T06:13:38;18.90;;;8.32;;
31336;SDS011;22846;42.654;23.314;2022-08-19T06:16:04;22.42;;;8.65;;
31336;SDS011;22846;42.654;23.314;2022-08-19T06:18:29;229.73;;;148.80;;
31336;SDS011;22846;42.654;23.314;2022-08-19T06:20:55;91.50;;;56.75;;
31336;SDS011;22846;42.654;23.314;2022-08-19T06:23:20;42.65;;;28.70;;
31336;SDS011;22846;42.654;23.314;2022-08-19T06:25:46;38.33;;;23.42;;
31336;SDS011;22846;42.654;23.314;2022-08-19T06:28:11;36.35;;;25.88;;
31336;SDS011;22846;42.654;23.314;2022-08-19T06:30:37;36.30;;;24.35;;
31336;SDS011;22846;42.654;23.314;2022-08-19T06:33:02;37.03;;;24.88;;
31336;SDS011;22846;42.654;23.314;2022-08-19T06:35:27;32.42;;;21.75;;
31336;SDS011;22846;42.654;23.314;2022-08-19T06:37:54;34.05;;;21.88;;
31336;SDS011;22846;42.654;23.314;2022-08-19T06:40:20;26.30;;;19.27;;
31336;SDS011;22846;42.654;23.314;2022-08-19T06:42:46;31.67;;;19.55;;
31336;SDS011;22846;42.654;23.314;2022-08-19T06:45:11;27.73;;;18.73;;
31336;SDS011;22846;42.654;23.314;2022-08-19T06:47:36;23.38;;;17.30;;
31336;SDS011;22846;42.654;23.314;2022-08-19T06:50:02;25.40;;;17.17;;
31336;SDS011;22846;42.654;23.314;2022-08-19T06:52:32;24.90;;;16.10;;
31336;SDS011;22846;42.654;23.314;2022-08-19T06:54:59;22.05;;;15.63;;
31336;SDS011;22846;42.654;23.314;2022-08-19T06:57:26;19.23;;;14.95;;
31336;SDS011;22846;42.654;23.314;2022-08-19T06:59:52;20.00;;;14.38;;
31336;SDS011;22846;42.654;23.314;2022-08-19T07:02:18;19.15;;;13.80;;
31336;SDS011;22846;42.654;23.314;2022-08-19T07:04:45;20.35;;;14.40;;
31336;SDS011;22846;42.654;23.314;2022-08-19T07:07:12;20.33;;;14.23;;
31336;SDS011;22846;42.654;23.314;2022-08-19T07:09:40;22.80;;;14.02;;
31336;SDS011;22846;42.654;23.314;2022-08-19T07:12:09;18.45;;;13.18;;
31336;SDS011;22846;42.654;23.314;2022-08-19T07:14:36;20.13;;;13.65;;
31336;SDS011;22846;42.654;23.314;2022-08-19T07:17:02;17.80;;;13.43;;
31336;SDS011;22846;42.654;23.314;2022-08-19T07:19:30;18.13;;;13.25;;
31336;SDS011;22846;42.654;23.314;2022-08-19T07:21:56;15.93;;;12.65;;
31336;SDS011;22846;42.654;23.314;2022-08-19T07:24:24;19.15;;;12.82;;
31336;SDS011;22846;42.654;23.314;2022-08-19T07:26:52;18.25;;;12.50;;
31336;SDS011;22846;42.654;23.314;2022-08-19T07:29:20;16.08;;;12.55;;
31336;SDS011;22846;42.654;23.314;2022-08-19T07:31:48;16.15;;;12.10;;
31336;SDS011;22846;42.654;23.314;2022-08-19T07:34:17;15.02;;;11.25;;
31336;SDS011;22846;42.654;23.314;2022-08-19T07:36:43;15.30;;;11.75;;
31336;SDS011;22846;42.654;23.314;2022-08-19T07:39:19;15.35;;;11.25;;
31336;SDS011;22846;42.654;23.314;2022-08-19T07:41:47;16.27;;;11.05;;
31336;SDS011;22846;42.654;23.314;2022-08-19T07:44:15;14.90;;;11.52;;
31336;SDS011;22846;42.654;23.314;2022-08-19T07:46:43;15.07;;;11.13;;
31336;SDS011;22846;42.654;23.314;2022-08-19T07:49:10;15.10;;;11.32;;
31336;SDS011;22846;42.654;23.314;2022-08-19T07:51:42;13.35;;;10.32;;
31336;SDS011;22846;42.654;23.314;2022-08-19T07:54:08;15.48;;;11.00;;
31336;SDS011;22846;42.654;23.314;2022-08-19T07:56:34;13.85;;;11.32;;
31336;SDS011;22846;42.654;23.314;2022-08-19T07:59:00;14.07;;;10.75;;
31336;SDS011;22846;42.654;23.314;2022-08-19T08:01:25;14.43;;;10.57;;
31336;SDS011;22846;42.654;23.314;2022-08-19T08:03:53;13.57;;;10.27;;
31336;SDS011;22846;42.654;23.314;2022-08-19T08:06:40;11.73;;;9.43;;
31336;SDS011;22846;42.654;23.314;2022-08-19T08:09:26;12.38;;;9.50;;
31336;SDS011;22846;42.654;23.314;2022-08-19T08:11:59;14.30;;;9.88;;
31336;SDS011;22846;42.654;23.314;2022-08-19T08:14:28;14.02;;;9.65;;
31336;SDS011;22846;42.654;23.314;2022-08-19T08:16:57;11.25;;;9.07;;
31336;SDS011;22846;42.654;23.314;2022-08-19T08:19:23;12.63;;;9.77;;
31336;SDS011;22846;42.654;23.314;2022-08-19T08:21:51;21.95;;;9.93;;
31336;SDS011;22846;42.654;23.314;2022-08-19T08:24:18;13.07;;;9.35;;
31336;SDS011;22846;42.654;23.314;2022-08-19T08:26:43;14.75;;;9.43;;
31336;SDS011;22846;42.654;23.314;2022-08-19T08:29:10;12.52;;;8.55;;
31336;SDS011;22846;42.654;23.314;2022-08-19T08:31:36;11.63;;;8.88;;
31336;SDS011;22846;42.654;23.314;2022-08-19T08:34:02;12.57;;;8.85;;
31336;SDS011;22846;42.654;23.314;2022-08-19T08:36:28;11.30;;;8.48;;
31336;SDS011;22846;42.654;23.314;2022-08-19T08:38:53;12.40;;;9.18;;
31336;SDS011;22846;42.654;23.314;2022-08-19T08:44:17;10.43;;;8.70;;
31336;SDS011;22846;42.654;23.314;2022-08-19T08:47:00;10.50;;;7.78;;
31336;SDS011;22846;42.654;23.314;2022-08-19T08:49:34;10.38;;;8.10;;
31336;SDS011;22846;42.654;23.314;2022-08-19T08:52:27;10.65;;;8.13;;
31336;SDS011;22846;42.654;23.314;2022-08-19T08:55:05;12.93;;;8.35;;
31336;SDS011;22846;42.654;23.314;2022-08-19T09:00:26;11.13;;;8.23;;
31336;SDS011;22846;42.654;23.314;2022-08-19T09:02:55;9.68;;;7.78;;
31336;SDS011;22846;42.654;23.314;2022-08-19T09:05:23;11.10;;;7.80;;
31336;SDS011;22846;42.654;23.314;2022-08-19T09:08:06;8.82;;;7.38;;
31336;SDS011;22846;42.654;23.314;2022-08-19T09:10:39;10.02;;;7.55;;
31336;SDS011;22846;42.654;23.314;2022-08-19T09:13:15;8.77;;;6.95;;
31336;SDS011;22846;42.654;23.314;2022-08-19T09:15:48;9.30;;;7.40;;
31336;SDS011;22846;42.654;23.314;2022-08-19T09:18:17;9.98;;;7.05;;
31336;SDS011;22846;42.654;23.314;2022-08-19T09:20:43;10.82;;;7.20;;
31336;SDS011;22846;42.654;23.314;2022-08-19T09:23:11;7.53;;;6.55;;
31336;SDS011;22846;42.654;23.314;2022-08-19T09:25:37;9.52;;;7.57;;
31336;SDS011;22846;42.654;23.314;2022-08-19T09:28:05;9.45;;;6.90;;
31336;SDS011;22846;42.654;23.314;2022-08-19T09:30:33;10.20;;;6.88;;
31336;SDS011;22846;42.654;23.314;2022-08-19T09:33:04;8.35;;;6.60;;
31336;SDS011;22846;42.654;23.314;2022-08-19T09:35:30;10.07;;;6.85;;
31336;SDS011;22846;42.654;23.314;2022-08-19T09:37:56;7.35;;;5.90;;
31336;SDS011;22846;42.654;23.314;2022-08-19T09:40:22;7.05;;;6.35;;
31336;SDS011;22846;42.654;23.314;2022-08-19T09:42:47;9.27;;;5.95;;
31336;SDS011;22846;42.654;23.314;2022-08-19T09:45:14;6.70;;;5.93;;
31336;SDS011;22846;42.654;23.314;2022-08-19T09:47:41;8.20;;;6.28;;
31336;SDS011;22846;42.654;23.314;2022-08-19T09:50:07;7.63;;;6.18;;
31336;SDS011;22846;42.654;23.314;2022-08-19T09:52:35;7.40;;;5.85;;
31336;SDS011;22846;42.654;23.314;2022-08-19T09:55:09;7.18;;;5.53;;
31336;SDS011;22846;42.654;23.314;2022-08-19T09:57:36;7.38;;;6.18;;
31336;SDS011;22846;42.654;23.314;2022-08-19T10:00:03;7.47;;;6.20;;
31336;SDS011;22846;42.654;23.314;2022-08-19T10:02:30;8.73;;;6.20;;
31336;SDS011;22846;42.654;23.314;2022-08-19T10:04:56;8.10;;;6.70;;
31336;SDS011;22846;42.654;23.314;2022-08-19T10:07:39;8.05;;;6.15;;
31336;SDS011;22846;42.654;23.314;2022-08-19T10:10:05;7.32;;;5.90;;
31336;SDS011;22846;42.654;23.314;2022-08-19T10:12:32;8.82;;;6.40;;
31336;SDS011;22846;42.654;23.314;2022-08-19T10:14:59;5.95;;;5.35;;
31336;SDS011;22846;42.654;23.314;2022-08-19T10:17:25;9.02;;;6.05;;
31336;SDS011;22846;42.654;23.314;2022-08-19T10:19:51;6.10;;;5.20;;
31336;SDS011;22846;42.654;23.314;2022-08-19T10:22:17;7.85;;;5.85;;
31336;SDS011;22846;42.654;23.314;2022-08-19T10:24:43;6.90;;;5.30;;
31336;SDS011;22846;42.654;23.314;2022-08-19T10:27:10;7.20;;;5.53;;
31336;SDS011;22846;42.654;23.314;2022-08-19T10:29:37;6.00;;;5.00;;
31336;SDS011;22846;42.654;23.314;2022-08-19T10:32:04;7.07;;;5.25;;
31336;SDS011;22846;42.654;23.314;2022-08-19T10:34:32;6.53;;;5.32;;
31336;SDS011;22846;42.654;23.314;2022-08-19T10:36:59;6.15;;;4.93;;
31336;SDS011;22846;42.654;23.314;2022-08-19T10:39:25;9.23;;;4.85;;
31336;SDS011;22846;42.654;23.314;2022-08-19T10:41:53;6.43;;;5.25;;
31336;SDS011;22846;42.654;23.314;2022-08-19T10:44:18;7.65;;;5.30;;
31336;SDS011;22846;42.654;23.314;2022-08-19T10:46:45;8.00;;;5.18;;
31336;SDS011;22846;42.654;23.314;2022-08-19T10:49:11;6.68;;;4.93;;
31336;SDS011;22846;42.654;23.314;2022-08-19T10:51:41;10.38;;;5.30;;
31336;SDS011;22846;42.654;23.314;2022-08-19T10:54:26;7.00;;;4.85;;
31336;SDS011;22846;42.654;23.314;2022-08-19T10:57:12;7.38;;;5.85;;
31336;SDS011;22846;42.654;23.314;2022-08-19T10:59:37;7.95;;;5.10;;
31336;SDS011;22846;42.654;23.314;2022-08-19T11:02:04;7.57;;;5.07;;
31336;SDS011;22846;42.654;23.314;2022-08-19T11:04:34;6.78;;;5.28;;
31336;SDS011;22846;42.654;23.314;2022-08-19T11:07:00;9.35;;;4.88;;
31336;SDS011;22846;42.654;23.314;2022-08-19T11:09:25;6.78;;;5.00;;
31336;SDS011;22846;42.654;23.314;2022-08-19T11:11:54;6.13;;;4.78;;
31336;SDS011;22846;42.654;23.314;2022-08-19T11:14:21;6.75;;;5.03;;
31336;SDS011;22846;42.654;23.314;2022-08-19T11:16:49;7.47;;;5.05;;
31336;SDS011;22846;42.654;23.314;2022-08-19T11:19:15;5.25;;;4.13;;
31336;SDS011;22846;42.654;23.314;2022-08-19T11:21:44;6.78;;;4.45;;
31336;SDS011;22846;42.654;23.314;2022-08-19T11:24:13;6.07;;;4.60;;
31336;SDS011;22846;42.654;23.314;2022-08-19T11:26:41;5.72;;;4.40;;
31336;SDS011;22846;42.654;23.314;2022-08-19T11:29:08;14.57;;;12.43;;
31336;SDS011;22846;42.654;23.314;2022-08-19T11:31:38;47.42;;;36.17;;
31336;SDS011;22846;42.654;23.314;2022-08-19T11:34:09;43.00;;;33.08;;
31336;SDS011;22846;42.654;23.314;2022-08-19T11:36:38;41.15;;;33.15;;
31336;SDS011;22846;42.654;23.314;2022-08-19T11:39:06;39.40;;;29.65;;
31336;SDS011;22846;42.654;23.314;2022-08-19T11:41:33;35.03;;;27.35;;
31336;SDS011;22846;42.654;23.314;2022-08-19T11:43:58;27.65;;;20.50;;
31336;SDS011;22846;42.654;23.314;2022-08-19T11:46:24;29.73;;;23.80;;
31336;SDS011;22846;42.654;23.314;2022-08-19T11:48:54;31.08;;;23.38;;
31336;SDS011;22846;42.654;23.314;2022-08-19T11:51:21;31.02;;;23.30;;
31336;SDS011;22846;42.654;23.314;2022-08-19T11:53:49;30.65;;;21.98;;
31336;SDS011;22846;42.654;23.314;2022-08-19T11:56:15;29.83;;;21.42;;
31336;SDS011;22846;42.654;23.314;2022-08-19T11:58:42;25.40;;;20.10;;
31336;SDS011;22846;42.654;23.314;2022-08-19T12:01:08;26.73;;;21.00;;
31336;SDS011;22846;42.654;23.314;2022-08-19T12:03:36;42.22;;;33.92;;
31336;SDS011;22846;42.654;23.314;2022-08-19T12:06:06;38.65;;;29.40;;
31336;SDS011;22846;42.654;23.314;2022-08-19T12:08:38;52.00;;;34.45;;
31336;SDS011;22846;42.654;23.314;2022-08-19T12:11:08;49.38;;;37.85;;
31336;SDS011;22846;42.654;23.314;2022-08-19T12:13:35;52.38;;;41.50;;
31336;SDS011;22846;42.654;23.314;2022-08-19T12:16:08;55.75;;;40.15;;
31336;SDS011;22846;42.654;23.314;2022-08-19T12:18:39;49.70;;;36.97;;
31336;SDS011;22846;42.654;23.314;2022-08-19T12:21:11;45.22;;;35.55;;
31336;SDS011;22846;42.654;23.314;2022-08-19T12:23:40;48.13;;;35.80;;
31336;SDS011;22846;42.654;23.314;2022-08-19T12:26:06;44.50;;;34.67;;
31336;SDS011;22846;42.654;23.314;2022-08-19T12:28:34;38.47;;;31.25;;
31336;SDS011;22846;42.654;23.314;2022-08-19T12:31:01;41.47;;;31.88;;
31336;SDS011;22846;42.654;23.314;2022-08-19T12:33:27;40.28;;;31.15;;
31336;SDS011;22846;42.654;23.314;2022-08-19T12:35:53;39.95;;;30.45;;
31336;SDS011;22846;42.654;23.314;2022-08-19T12:38:20;37.15;;;29.75;;
31336;SDS011;22846;42.654;23.314;2022-08-19T12:40:49;37.15;;;29.63;;
31336;SDS011;22846;42.654;23.314;2022-08-19T12:43:16;33.30;;;27.48;;
31336;SDS011;22846;42.654;23.314;2022-08-19T12:45:42;35.85;;;28.52;;
31336;SDS011;22846;42.654;23.314;2022-08-19T12:48:08;35.38;;;27.38;;
31336;SDS011;22846;42.654;23.314;2022-08-19T12:50:34;34.75;;;26.85;;
31336;SDS011;22846;42.654;23.314;2022-08-19T12:53:00;33.33;;;26.75;;
31336;SDS011;22846;42.654;23.314;2022-08-19T12:55:26;33.83;;;27.10;;
31336;SDS011;22846;42.654;23.314;2022-08-19T12:57:53;33.05;;;26.58;;
31336;SDS011;22846;42.654;23.314;2022-08-19T13:00:19;31.00;;;25.13;;
31336;SDS011;22846;42.654;23.314;2022-08-19T13:02:47;30.15;;;24.13;;
31336;SDS011;22846;42.654;23.314;2022-08-19T13:05:17;29.23;;;23.58;;
31336;SDS011;22846;42.654;23.314;2022-08-19T13:07:48;29.80;;;23.20;;
31336;SDS011;22846;42.654;23.314;2022-08-19T13:10:16;30.20;;;23.42;;
31336;SDS011;22846;42.654;23.314;2022-08-19T13:12:43;29.85;;;23.30;;
31336;SDS011;22846;42.654;23.314;2022-08-19T13:15:10;27.08;;;23.05;;
31336;SDS011;22846;42.654;23.314;2022-08-19T13:17:36;24.88;;;20.38;;
31336;SDS011;22846;42.654;23.314;2022-08-19T13:20:03;20.50;;;15.32;;
31336;SDS011;22846;42.654;23.314;2022-08-19T13:22:31;21.40;;;16.77;;
31336;SDS011;22846;42.654;23.314;2022-08-19T13:24:56;23.05;;;18.10;;
31336;SDS011;22846;42.654;23.314;2022-08-19T13:27:22;18.33;;;14.93;;
31336;SDS011;22846;42.654;23.314;2022-08-19T13:29:47;16.10;;;13.70;;
31336;SDS011;22846;42.654;23.314;2022-08-19T13:32:31;13.02;;;10.32;;
31336;SDS011;22846;42.654;23.314;2022-08-19T13:35:15;13.00;;;9.88;;
31336;SDS011;22846;42.654;23.314;2022-08-19T13:37:41;15.13;;;8.98;;
31336;SDS011;22846;42.654;23.314;2022-08-19T13:40:12;16.77;;;12.65;;
31336;SDS011;22846;42.654;23.314;2022-08-19T13:42:41;11.70;;;9.63;;
31336;SDS011;22846;42.654;23.314;2022-08-19T13:45:08;16.08;;;8.98;;
31336;SDS011;22846;42.654;23.314;2022-08-19T13:47:34;11.85;;;8.23;;
31336;SDS011;22846;42.654;23.314;2022-08-19T13:50:03;12.18;;;8.57;;
31336;SDS011;22846;42.654;23.314;2022-08-19T13:52:29;11.98;;;7.93;;
31336;SDS011;22846;42.654;23.314;2022-08-19T13:54:54;8.65;;;7.75;;
31336;SDS011;22846;42.654;23.314;2022-08-19T13:57:19;10.32;;;7.75;;
31336;SDS011;22846;42.654;23.314;2022-08-19T13:59:45;9.77;;;7.43;;
31336;SDS011;22846;42.654;23.314;2022-08-19T14:02:10;15.77;;;7.80;;
31336;SDS011;22846;42.654;23.314;2022-08-19T14:04:36;10.57;;;8.00;;
31336;SDS011;22846;42.654;23.314;2022-08-19T14:07:02;11.60;;;7.85;;
31336;SDS011;22846;42.654;23.314;2022-08-19T14:09:28;15.18;;;8.00;;
31336;SDS011;22846;42.654;23.314;2022-08-19T14:11:54;9.25;;;7.30;;
31336;SDS011;22846;42.654;23.314;2022-08-19T14:14:20;8.80;;;7.00;;
31336;SDS011;22846;42.654;23.314;2022-08-19T14:16:46;13.65;;;7.32;;
31336;SDS011;22846;42.654;23.314;2022-08-19T14:19:12;13.45;;;6.70;;
31336;SDS011;22846;42.654;23.314;2022-08-19T14:21:37;9.35;;;7.10;;
31336;SDS011;22846;42.654;23.314;2022-08-19T14:24:04;9.48;;;6.60;;
31336;SDS011;22846;42.654;23.314;2022-08-19T14:26:29;7.75;;;6.45;;
31336;SDS011;22846;42.654;23.314;2022-08-19T14:28:55;9.07;;;6.43;;
31336;SDS011;22846;42.654;23.314;2022-08-19T14:31:22;10.10;;;7.03;;
31336;SDS011;22846;42.654;23.314;2022-08-19T14:33:48;8.63;;;6.50;;
31336;SDS011;22846;42.654;23.314;2022-08-19T14:36:14;9.73;;;6.85;;
31336;SDS011;22846;42.654;23.314;2022-08-19T14:38:40;12.27;;;6.65;;